Carolina Hills, North Carolina
Current Conditions -  °F | °C
As of 4:54 PM on Friday 19 Dec 2014 (Local Time) from KAVL Reporting Station
Clear Clear  
Wind Chill: 43°   Ceiling: Unl
Heat Index: 47°   Visibility: 10mi
Dew Point: 29°   Wind: 9mph
Humidity: 50%   Direction: 340°NNW
Pressure: 30.1"   Gusts: NA
Location:  35.4492°N, 82.4624°W
Report Text: KAVL 192154Z 34008KT 10SM CLR 08/M02 A3010 RMK AO2 SLP195 T00831017
Loading
Personal Weather Stations






























Interactive Weather Map New forecast layout! Learn more

10-Day Weather Forecast

Advertisements
Track Severe Weather on mobile